Time;durP1;ratioP1;P1;durP2;ratioP2;P2;SDS_P1;SDS_P2;PMS_P1;PMS_P2;Temp;Humidity;BMP_temperature;BMP_pressure;BME280_temperature;BME280_humidity;BME280_pressure;Samples;Min_cycle;Max_cycle;Signal;HPM_P1;HPM_P2
2021/05/06 00:03:04;;;;;;;17.98;1.95;;;4.90;99.90;;;;;;4992472;28;20109;-82
2021/05/06 00:05:19;;;;;;;15.93;2.67;;;4.90;99.90;;;;;;4987932;28;20035;-82
2021/05/06 00:08:06;;;;;;;23.05;2.92;;;4.90;99.90;;;;;;4992945;28;20014;-82
2021/05/06 00:11:12;;;;;;;39.88;6.53;;;5.00;99.90;;;;;;4992740;28;20472;-82
2021/05/06 00:32:38;;;;;;;20.48;3.22;;;4.70;99.90;;;;;;4992722;28;20036;-82
2021/05/06 00:35:06;;;;;;;18.30;2.90;;;4.80;99.90;;;;;;4991765;28;20376;-82
2021/05/06 00:37:45;;;;;;;38.72;5.18;;;4.80;99.90;;;;;;4992260;28;20026;-82
2021/05/06 00:40:13;;;;;;;31.45;3.83;;;4.80;99.90;;;;;;4992197;28;20027;-82
2021/05/06 00:43:20;;;;;;;27.40;4.35;;;4.90;99.90;;;;;;4992185;28;20018;-82
2021/05/06 01:02:11;;;;;;;33.55;4.63;;;5.00;99.90;;;;;;5011692;28;20037;-82
2021/05/06 01:12:24;;;;;;;33.35;4.60;;;5.20;99.90;;;;;;5013475;28;20058;-82
2021/05/06 01:14:49;;;;;;;34.20;4.10;;;5.40;99.90;;;;;;5014556;28;20057;-82
2021/05/06 01:17:15;;;;;;;41.83;5.35;;;5.40;99.90;;;;;;5015464;28;20038;-81
2021/05/06 01:19:41;;;;;;;22.30;4.28;;;5.40;99.90;;;;;;5015227;28;20037;-82
2021/05/06 01:22:06;;;;;;;38.65;5.70;;;5.30;99.90;;;;;;5014983;28;20026;-81
2021/05/06 01:24:34;;;;;;;33.63;4.90;;;5.30;99.90;;;;;;5013145;28;20030;-82
2021/05/06 01:29:49;;;;;;;25.40;3.95;;;5.20;99.90;;;;;;5015176;28;20029;-81
2021/05/06 01:32:22;;;;;;;27.70;3.67;;;5.10;99.90;;;;;;5015187;28;20562;-82
2021/05/06 01:34:53;;;;;;;25.20;4.00;;;5.10;99.90;;;;;;5014402;28;20121;-82
2021/05/06 01:37:26;;;;;;;25.70;3.05;;;5.00;99.90;;;;;;5014784;28;20479;-82
2021/05/06 02:00:40;;;;;;;22.45;3.78;;;4.60;99.90;;;;;;5008015;28;20105;-82
2021/05/06 02:03:05;;;;;;;20.98;2.78;;;4.60;99.90;;;;;;5014549;28;20429;-82
2021/05/06 02:05:31;;;;;;;20.70;3.25;;;4.50;99.90;;;;;;5013927;28;20034;-82
2021/05/06 02:07:57;;;;;;;27.08;3.65;;;4.50;99.90;;;;;;5014554;28;20497;-82
2021/05/06 02:10:26;;;;;;;38.33;4.05;;;4.50;99.90;;;;;;5014596;28;20049;-82
2021/05/06 02:12:52;;;;;;;30.77;3.40;;;4.50;99.90;;;;;;5014223;28;20029;-82
2021/05/06 02:15:22;;;;;;;24.92;3.80;;;4.40;99.90;;;;;;5014020;28;20097;-81
2021/05/06 02:17:48;;;;;;;31.20;3.42;;;4.40;99.90;;;;;;5014466;28;20528;-82
2021/05/06 02:20:15;;;;;;;25.35;3.90;;;4.40;99.90;;;;;;5014594;28;20025;-82
2021/05/06 02:22:42;;;;;;;16.05;3.65;;;4.40;99.90;;;;;;5013982;28;20030;-81
2021/05/06 02:25:08;;;;;;;30.38;3.22;;;4.50;99.90;;;;;;5013017;28;20032;-81
2021/05/06 02:27:34;;;;;;;11.27;2.03;;;4.50;99.90;;;;;;5014031;28;20069;-82
2021/05/06 02:30:00;;;;;;;15.27;3.63;;;4.60;99.90;;;;;;5014350;28;20018;-83
2021/05/06 02:32:28;;;;;;;17.60;2.78;;;4.60;99.90;;;;;;5014015;28;20033;-81
2021/05/06 02:34:54;;;;;;;29.10;3.42;;;4.60;99.90;;;;;;5013385;28;20033;-81
2021/05/06 02:37:20;;;;;;;9.45;1.73;;;4.60;99.90;;;;;;5013448;28;20500;-81
2021/05/06 02:39:46;;;;;;;11.68;2.50;;;4.30;99.90;;;;;;5012397;28;20068;-82
2021/05/06 02:42:13;;;;;;;10.38;1.48;;;4.00;99.90;;;;;;5013763;28;20482;-82
2021/05/06 02:44:40;;;;;;;6.68;1.13;;;3.90;99.90;;;;;;5012990;28;20030;-82
2021/05/06 02:47:06;;;;;;;9.18;1.85;;;3.90;99.90;;;;;;5012516;28;20022;-82
2021/05/06 02:49:32;;;;;;;5.85;1.50;;;3.90;99.90;;;;;;5013718;28;20037;-82
2021/05/06 02:52:23;;;;;;;11.65;1.83;;;3.90;99.90;;;;;;5013377;28;20037;-82
2021/05/06 02:54:51;;;;;;;14.77;3.22;;;3.90;99.90;;;;;;5012865;28;20029;-83
2021/05/06 03:05:30;;;;;;;114.05;31.15;;;4.10;99.90;;;;;;5008884;28;20022;-82
2021/05/06 03:13:10;;;;;;;26.13;5.95;;;4.40;99.90;;;;;;5013537;28;20021;-82
2021/05/06 03:23:50;;;;;;;36.88;7.55;;;4.60;99.90;;;;;;5012374;28;19920;-81
2021/05/06 03:26:16;;;;;;;31.08;5.82;;;4.60;99.90;;;;;;5013082;28;20022;-82
2021/05/06 03:28:55;;;;;;;43.75;6.32;;;4.50;99.90;;;;;;5012935;28;20053;-83
2021/05/06 03:42:28;;;;;;;44.08;7.45;;;4.70;99.90;;;;;;5011552;28;20053;-82
2021/05/06 03:45:07;;;;;;;35.97;6.53;;;4.80;99.90;;;;;;5012100;28;20017;-81
2021/05/06 04:14:47;;;;;;;45.28;7.00;;;4.80;99.90;;;;;;5011666;28;20449;-82
2021/05/06 04:17:27;;;;;;;55.10;8.48;;;4.80;99.90;;;;;;5012085;28;20030;-82
2021/05/06 04:25:39;;;;;;;69.57;9.73;;;5.00;99.90;;;;;;5011711;28;20528;-82
2021/05/06 04:31:10;;;;;;;49.78;7.32;;;5.20;99.90;;;;;;5012081;28;20033;-83
2021/05/06 04:37:02;;;;;;;48.30;6.40;;;5.20;99.90;;;;;;5012193;28;20036;-82
2021/05/06 04:39:12;;;;;;;42.38;6.95;;;5.30;99.90;;;;;;5014054;28;20087;-82
2021/05/06 04:41:55;;;;;;;55.10;7.35;;;5.40;99.90;;;;;;5011926;28;20061;-82
2021/05/06 04:55:27;;;;;;;44.70;6.78;;;5.40;99.90;;;;;;4998719;28;19932;-83
2021/05/06 04:58:09;;;;;;;31.98;4.88;;;5.30;99.90;;;;;;4998931;28;20029;-83
2021/05/06 05:03:37;;;;;;;46.85;7.03;;;5.30;99.90;;;;;;5017211;28;20103;-83
2021/05/06 05:06:03;;;;;;;51.70;7.18;;;5.30;99.90;;;;;;5018056;28;20045;-83
2021/05/06 05:08:35;;;;;;;49.92;7.05;;;5.40;99.90;;;;;;5018206;28;20045;-83
2021/05/06 05:24:45;;;;;;;27.02;5.25;;;5.40;99.90;;;;;;5015042;28;20042;-83
2021/05/06 05:27:11;;;;;;;28.88;5.85;;;5.40;99.90;;;;;;5015740;28;20022;-83
2021/05/06 05:29:36;;;;;;;42.55;4.82;;;5.50;99.90;;;;;;5017077;28;20042;-83
2021/05/06 05:32:02;;;;;;;28.67;5.78;;;5.50;99.90;;;;;;5018028;28;20068;-83
2021/05/06 05:34:34;;;;;;;35.70;6.03;;;5.60;99.90;;;;;;5017458;28;20096;-84
2021/05/06 05:37:00;;;;;;;25.25;4.13;;;5.70;99.90;;;;;;5018035;28;20473;-83
2021/05/06 05:39:40;;;;;;;32.30;6.05;;;5.80;99.90;;;;;;5017851;28;20052;-83
2021/05/06 05:42:17;;;;;;;23.25;4.20;;;5.80;99.90;;;;;;5033244;28;20022;-83
2021/05/06 05:55:23;;;;;;;;;;;5.90;99.90;;;;;;5017954;28;20040;-84
2021/05/06 05:57:51;;;;;;;58.38;11.68;;;6.00;99.90;;;;;;5015840;28;19905;-83
2021/05/06 06:00:17;;;;;;;79.75;20.88;;;6.00;99.90;;;;;;5014418;28;20072;-84
2021/05/06 06:02:43;;;;;;;89.72;25.00;;;6.20;99.90;;;;;;5012375;28;20112;-84
2021/05/06 06:05:10;;;;;;;48.35;16.20;;;6.20;99.90;;;;;;5013772;28;20402;-84
2021/05/06 06:07:35;;;;;;;49.28;10.05;;;6.20;99.90;;;;;;5014201;28;20033;-84
2021/05/06 06:10:02;;;;;;;24.63;5.18;;;6.20;99.90;;;;;;5029569;28;20034;-82
2021/05/06 06:12:27;;;;;;;59.65;19.85;;;5.70;99.90;;;;;;5014326;28;20026;-82
2021/05/06 06:15:04;;;;;;;47.10;10.40;;;5.20;99.90;;;;;;5013541;28;20029;-82
2021/05/06 06:17:36;;;;;;;36.90;9.52;;;5.10;99.90;;;;;;5014222;28;20049;-82
2021/05/06 06:20:02;;;;;;;52.17;15.35;;;5.00;99.90;;;;;;5014199;28;20026;-82
2021/05/06 06:22:31;;;;;;;43.67;7.22;;;5.10;99.90;;;;;;5029215;28;20033;-82
2021/05/06 06:24:56;;;;;;;51.92;12.27;;;5.20;99.90;;;;;;5013322;28;20026;-82
2021/05/06 06:27:22;;;;;;;65.40;14.18;;;5.40;99.90;;;;;;5013917;28;20029;-82
2021/05/06 06:29:48;;;;;;;45.42;6.50;;;5.50;99.90;;;;;;5029128;28;20029;-82
2021/05/06 06:32:14;;;;;;;47.28;9.70;;;5.60;99.90;;;;;;5013986;28;20105;-82
2021/05/06 06:34:40;;;;;;;53.85;9.23;;;5.70;99.90;;;;;;5013293;28;20033;-82
2021/05/06 06:37:05;;;;;;;52.75;12.10;;;5.80;99.90;;;;;;5013781;28;20026;-83
2021/05/06 06:39:31;;;;;;;42.70;7.40;;;5.90;99.90;;;;;;5013810;28;20081;-82
2021/05/06 06:41:57;;;;;;;44.80;7.80;;;6.00;99.90;;;;;;5029014;28;20025;-83
2021/05/06 06:44:28;;;;;;;44.47;7.68;;;6.00;99.90;;;;;;5012892;28;20088;-83
2021/05/06 06:47:01;;;;;;;45.22;7.18;;;6.10;99.90;;;;;;5013751;28;20050;-82
2021/05/06 06:49:35;;;;;;;47.83;6.75;;;6.10;99.90;;;;;;5013682;28;20021;-82
2021/05/06 06:52:01;;;;;;;23.77;4.25;;;6.00;99.90;;;;;;5013453;28;20026;-82
2021/05/06 06:54:28;;;;;;;14.45;2.60;;;5.90;99.90;;;;;;5013038;28;20073;-82
2021/05/06 06:56:54;;;;;;;16.25;4.00;;;5.40;99.90;;;;;;5028609;28;20029;-82
2021/05/06 06:59:20;;;;;;;33.58;6.00;;;5.20;99.90;;;;;;5013325;28;20469;-82
2021/05/06 07:01:45;;;;;;;26.92;5.07;;;5.20;99.90;;;;;;5013248;28;20050;-82
2021/05/06 07:04:11;;;;;;;31.90;9.32;;;5.10;99.90;;;;;;5012723;28;20037;-82
2021/05/06 07:06:38;;;;;;;41.50;5.00;;;5.00;99.90;;;;;;5013334;28;20022;-82
2021/05/06 07:09:05;;;;;;;36.00;8.35;;;4.90;99.90;;;;;;5012065;28;20026;-82
2021/05/06 07:11:31;;;;;;;118.60;52.03;;;4.80;99.90;;;;;;5012996;28;20025;-82
2021/05/06 07:13:57;;;;;;;46.08;9.48;;;4.70;99.90;;;;;;5012477;28;20033;-82
2021/05/06 07:16:22;;;;;;;43.05;13.48;;;4.70;99.90;;;;;;5013254;28;20032;-83
2021/05/06 07:18:48;;;;;;;40.63;6.57;;;4.70;99.90;;;;;;5013151;28;20124;-83
2021/05/06 07:21:14;;;;;;;39.83;6.63;;;4.90;99.90;;;;;;5013259;28;20030;-83
2021/05/06 07:23:39;;;;;;;41.08;6.32;;;4.90;99.90;;;;;;5012549;28;20034;-83
2021/05/06 07:26:06;;;;;;;42.63;5.90;;;4.90;99.90;;;;;;5012554;28;20026;-83
2021/05/06 07:28:33;;;;;;;35.08;6.30;;;4.90;99.90;;;;;;5012904;28;20026;-82
2021/05/06 07:31:03;;;;;;;24.80;5.20;;;4.90;99.90;;;;;;5013029;28;20486;-82
2021/05/06 07:33:30;;;;;;;47.55;5.97;;;5.00;99.90;;;;;;5012938;28;20041;-82
2021/05/06 07:35:57;;;;;;;32.42;5.05;;;5.10;99.90;;;;;;5011795;28;20367;-81
2021/05/06 07:38:23;;;;;;;40.90;5.82;;;5.10;99.90;;;;;;5013145;28;20466;-82
2021/05/06 07:40:49;;;;;;;32.67;5.53;;;5.20;99.90;;;;;;5012529;28;20030;-81
2021/05/06 07:43:15;;;;;;;35.55;5.32;;;5.30;99.90;;;;;;5011680;28;20037;-83
2021/05/06 07:45:40;;;;;;;29.20;5.40;;;5.40;99.90;;;;;;5012075;28;20026;-84
2021/05/06 07:48:06;;;;;;;23.95;5.53;;;5.40;99.90;;;;;;5027800;28;20024;-82
2021/05/06 07:50:32;;;;;;;23.40;4.50;;;5.20;99.90;;;;;;5011624;28;20018;-82
2021/05/06 07:53:05;;;;;;;22.30;3.65;;;5.10;99.90;;;;;;5007978;28;20054;-80
2021/05/06 07:55:31;;;;;;;17.95;2.63;;;5.00;99.90;;;;;;5002118;28;20106;-81
2021/05/06 07:57:58;;;;;;;15.40;3.10;;;4.90;99.90;;;;;;4992801;28;20073;-81
2021/05/06 08:00:26;;;;;;;18.05;4.00;;;4.80;99.90;;;;;;5004661;28;20387;-81
2021/05/06 08:02:51;;;;;;;33.38;4.32;;;4.80;99.90;;;;;;5012373;28;20449;-81
2021/05/06 08:05:17;;;;;;;31.65;5.15;;;4.80;99.90;;;;;;5011815;28;20054;-82
2021/05/06 08:07:43;;;;;;;26.10;4.35;;;5.00;99.90;;;;;;5012220;28;20100;-82
2021/05/06 08:10:09;;;;;;;27.45;5.15;;;5.10;99.90;;;;;;5012210;28;20034;-81
2021/05/06 08:12:35;;;;;;;20.52;4.07;;;5.10;99.90;;;;;;5010752;28;20445;-81
2021/05/06 08:15:06;;;;;;;26.80;5.43;;;5.20;99.90;;;;;;5005838;28;20080;-81
2021/05/06 08:17:32;;;;;;;23.63;4.15;;;5.20;99.90;;;;;;4992125;28;20022;-81
2021/05/06 08:19:58;;;;;;;18.70;3.50;;;5.10;99.90;;;;;;4992617;28;20455;-81
2021/05/06 08:22:24;;;;;;;19.67;3.92;;;5.00;99.90;;;;;;4991522;28;20026;-81
2021/05/06 08:24:50;;;;;;;25.17;3.40;;;4.80;99.90;;;;;;4990883;28;20113;-81
2021/05/06 08:27:16;;;;;;;20.48;3.38;;;4.70;99.90;;;;;;5004052;28;20028;-82
2021/05/06 08:29:42;;;;;;;27.10;5.55;;;4.60;99.90;;;;;;5011598;28;20108;-81
2021/05/06 08:32:08;;;;;;;35.35;7.18;;;4.70;99.90;;;;;;5011849;28;20117;-82
2021/05/06 08:34:33;;;;;;;39.50;8.02;;;4.90;99.90;;;;;;5005768;28;20084;-82
2021/05/06 08:36:59;;;;;;;58.28;18.90;;;5.20;99.90;;;;;;5011684;28;20470;-82
2021/05/06 08:39:25;;;;;;;48.58;11.75;;;5.40;99.90;;;;;;5011698;28;20030;-81
2021/05/06 08:41:51;;;;;;;41.08;8.05;;;5.60;99.90;;;;;;4997871;28;20101;-80
2021/05/06 08:44:20;;;;;;;23.50;5.40;;;5.80;99.90;;;;;;5010295;28;20145;-81
2021/05/06 08:47:12;;;;;;;38.58;4.85;;;5.80;99.90;;;;;;5011689;28;20026;-81
2021/05/06 08:49:34;;;;;;;34.30;7.68;;;5.50;99.90;;;;;;5011371;28;20494;-80
2021/05/06 08:52:01;;;;;;;71.72;25.63;;;5.30;99.90;;;;;;5011672;28;20561;-81
2021/05/06 08:54:27;;;;;;;207.70;79.65;;;5.30;99.90;;;;;;5010942;28;20111;-80
2021/05/06 08:56:53;;;;;;;142.90;40.90;;;5.30;99.90;;;;;;5010974;28;20058;-80
2021/05/06 08:59:19;;;;;;;132.50;32.30;;;5.40;99.90;;;;;;5005235;28;20037;-80
2021/05/06 09:01:45;;;;;;;52.42;10.57;;;5.50;99.90;;;;;;5011386;28;20442;-80
2021/05/06 09:04:10;;;;;;;86.25;25.92;;;5.90;99.90;;;;;;5011037;28;20478;-81
2021/05/06 09:06:54;;;;;;;160.55;49.55;;;6.40;99.90;;;;;;5010199;28;20025;-81
2021/05/06 09:09:21;;;;;;;154.07;47.83;;;6.60;99.90;;;;;;5011575;28;20105;-81
2021/05/06 09:11:51;;;;;;;184.93;54.25;;;6.90;99.90;;;;;;5009891;28;20122;-81
2021/05/06 09:14:17;;;;;;;86.22;27.13;;;7.20;99.90;;;;;;5008857;28;20398;-80
2021/05/06 09:16:43;;;;;;;55.88;10.23;;;7.40;99.90;;;;;;5011430;28;20030;-80
2021/05/06 09:19:14;;;;;;;95.85;31.35;;;7.60;99.90;;;;;;5011341;28;20037;-81
2021/05/06 09:21:43;;;;;;;117.72;40.97;;;7.70;99.90;;;;;;5010228;28;20050;-80
2021/05/06 09:24:24;;;;;;;60.22;17.15;;;7.70;99.90;;;;;;5010019;28;20026;-80
2021/05/06 09:27:07;;;;;;;196.68;65.90;;;7.60;99.90;;;;;;5010502;28;20025;-82
2021/05/06 09:29:41;;;;;;;90.95;25.98;;;7.90;99.90;;;;;;5009685;28;20026;-81
2021/05/06 09:32:19;;;;;;;71.68;24.60;;;8.10;99.90;;;;;;5011373;28;20080;-82
2021/05/06 09:34:45;;;;;;;87.63;27.65;;;8.30;99.90;;;;;;5014218;28;20018;-81
2021/05/06 09:37:27;;;;;;;65.95;19.17;;;8.50;99.90;;;;;;5014703;28;20038;-81
2021/05/06 09:40:02;;;;;;;41.28;10.07;;;8.30;99.90;;;;;;5013657;28;20037;-81
2021/05/06 09:42:44;;;;;;;170.48;54.67;;;8.40;99.90;;;;;;5014876;28;20022;-81
2021/05/06 09:45:19;;;;;;;140.98;45.15;;;8.60;99.90;;;;;;5014536;28;20544;-80
2021/05/06 09:47:44;;;;;;;139.85;50.60;;;8.30;99.90;;;;;;5013954;28;20537;-81
2021/05/06 09:50:23;;;;;;;72.38;19.80;;;8.40;99.90;;;;;;5014252;28;20026;-80
2021/05/06 09:52:56;;;;;;;57.67;14.38;;;8.50;99.90;;;;;;5010015;28;20654;-82
2021/05/06 09:55:23;;;;;;;63.13;18.35;;;8.70;99.90;;;;;;5005135;28;20033;-81
2021/05/06 09:57:48;;;;;;;45.80;8.82;;;8.70;99.90;;;;;;4997512;28;20141;-83
2021/05/06 10:00:19;;;;;;;182.07;60.13;;;8.50;99.90;;;;;;5007456;28;20121;-84
2021/05/06 10:02:46;;;;;;;91.15;29.08;;;8.60;99.90;;;;;;5008818;28;20075;-82
2021/05/06 10:05:14;;;;;;;70.72;23.15;;;8.50;99.90;;;;;;4995984;28;20103;-81
2021/05/06 10:07:53;;;;;;;58.05;20.65;;;8.20;99.90;;;;;;4999725;28;20030;-81
2021/05/06 10:10:24;;;;;;;98.95;36.30;;;7.90;99.90;;;;;;5004245;28;20022;-82
2021/05/06 10:12:50;;;;;;;70.93;22.23;;;7.90;99.90;;;;;;4999842;28;20497;-82
2021/05/06 10:15:18;;;;;;;78.10;22.35;;;7.80;99.90;;;;;;5000827;28;20038;-82
2021/05/06 10:17:44;;;;;;;89.22;35.20;;;7.60;99.90;;;;;;5002930;28;20037;-84
2021/05/06 10:20:10;;;;;;;67.10;24.75;;;7.40;99.90;;;;;;4997326;28;20394;-82
2021/05/06 10:22:36;;;;;;;81.60;29.92;;;7.10;99.90;;;;;;5006667;28;20022;-81
2021/05/06 10:25:04;;;;;;;32.88;8.93;;;6.40;99.90;;;;;;4998090;28;20040;-81
2021/05/06 10:27:30;;;;;;;62.75;22.50;;;5.80;99.90;;;;;;5006505;28;20100;-81
2021/05/06 10:29:58;;;;;;;73.03;29.88;;;5.40;99.90;;;;;;5004841;28;20490;-82
2021/05/06 10:32:27;;;;;;;58.70;17.33;;;5.30;99.90;;;;;;4993592;28;20045;-82
2021/05/06 10:34:57;;;;;;;85.10;29.52;;;5.40;99.90;;;;;;5006936;28;20029;-81
2021/05/06 10:37:31;;;;;;;30.17;8.10;;;5.60;99.90;;;;;;5007539;28;20120;-81
2021/05/06 10:39:57;;;;;;;36.97;12.73;;;5.70;99.90;;;;;;4994586;28;20113;-80
2021/05/06 10:42:29;;;;;;;39.42;6.95;;;5.80;99.90;;;;;;5000712;28;20026;-79
2021/05/06 10:45:14;;;;;;;23.67;4.85;;;5.90;99.90;;;;;;4998549;28;20025;-80
2021/05/06 10:47:43;;;;;;;42.20;10.32;;;5.90;99.90;;;;;;4997135;28;20038;-80
2021/05/06 10:50:14;;;;;;;45.05;10.60;;;6.20;99.90;;;;;;5006591;28;20041;-81
2021/05/06 10:52:45;;;;;;;20.52;6.20;;;6.80;99.90;;;;;;5001450;28;20034;-82
2021/05/06 10:55:12;;;;;;;31.20;9.20;;;7.50;99.90;;;;;;4990655;28;20034;-82
2021/05/06 10:57:39;;;;;;;39.55;7.25;;;7.90;99.90;;;;;;5004897;28;20388;-83
2021/05/06 11:00:26;;;;;;;24.23;7.03;;;8.20;99.90;;;;;;5000091;28;20030;-81
2021/05/06 11:02:57;;;;;;;31.67;7.05;;;8.50;99.90;;;;;;4990662;28;20045;-81
2021/05/06 11:05:29;;;;;;;22.77;7.75;;;8.70;99.90;;;;;;5007705;28;20407;-83
2021/05/06 11:08:04;;;;;;;14.45;4.45;;;8.80;99.90;;;;;;5000537;28;20050;-83
2021/05/06 11:10:50;;;;;;;31.92;7.85;;;8.90;99.90;;;;;;4999982;28;20030;-82
2021/05/06 11:13:17;;;;;;;33.45;12.45;;;8.80;99.90;;;;;;4997031;28;20031;-82
2021/05/06 11:15:43;;;;;;;38.42;8.50;;;9.00;99.90;;;;;;5000069;28;20075;-83
2021/05/06 11:18:11;;;;;;;29.48;8.07;;;9.10;99.90;;;;;;5012821;28;20029;-83
2021/05/06 11:20:38;;;;;;;39.20;16.45;;;9.40;99.90;;;;;;5012816;28;20022;-83
2021/05/06 11:23:04;;;;;;;32.75;11.68;;;9.70;99.90;;;;;;5011609;28;20029;-83
2021/05/06 11:25:30;;;;;;;55.97;19.52;;;9.80;99.90;;;;;;5012500;28;20033;-82
2021/05/06 11:28:01;;;;;;;43.03;19.35;;;9.40;99.90;;;;;;5012054;28;20029;-82
2021/05/06 11:30:34;;;;;;;79.40;30.60;;;9.10;99.90;;;;;;5012965;28;20045;-83
2021/05/06 11:33:20;;;;;;;43.15;13.77;;;9.00;99.90;;;;;;5012845;28;20026;-83
2021/05/06 11:36:16;;;;;;;105.10;43.25;;;8.70;99.90;;;;;;5011971;28;20478;-83
2021/05/06 11:38:51;;;;;;;61.22;16.70;;;8.50;99.90;;;;;;5012488;28;20053;-83
2021/05/06 11:41:33;;;;;;;52.95;16.67;;;8.90;99.90;;;;;;5012759;28;20018;-83
2021/05/06 11:44:05;;;;;;;57.05;19.70;;;9.30;99.90;;;;;;5012028;28;20056;-83
2021/05/06 11:46:36;;;;;;;31.13;13.35;;;8.80;99.90;;;;;;5011953;28;20101;-82
2021/05/06 11:49:04;;;;;;;28.27;7.28;;;8.10;99.90;;;;;;5012478;28;20026;-83
2021/05/06 11:51:32;;;;;;;24.35;5.18;;;7.80;99.90;;;;;;5012213;28;20045;-82
2021/05/06 11:54:04;;;;;;;18.70;5.90;;;8.00;99.90;;;;;;5011802;28;20026;-82
2021/05/06 11:56:29;;;;;;;43.72;7.25;;;8.30;99.90;;;;;;5012091;28;20034;-83
2021/05/06 11:58:56;;;;;;;20.92;4.78;;;8.60;99.90;;;;;;5011116;28;20052;-82
2021/05/06 12:01:28;;;;;;;16.15;4.93;;;9.00;99.90;;;;;;5012170;28;20068;-83
2021/05/06 12:03:54;;;;;;;31.60;4.68;;;9.20;99.90;;;;;;5011655;28;20412;-83
2021/05/06 12:06:28;;;;;;;21.75;3.78;;;9.70;99.90;;;;;;5011653;28;20076;-83
2021/05/06 12:08:54;;;;;;;;;;;9.70;99.90;;;;;;5012701;28;20030;-82
2021/05/06 12:11:20;;;;;;;27.50;3.97;;;9.00;99.90;;;;;;5012190;28;20353;-82
2021/05/06 12:13:46;;;;;;;13.27;2.65;;;8.70;99.90;;;;;;5011402;28;20058;-83
2021/05/06 12:16:19;;;;;;;12.18;2.40;;;8.30;99.90;;;;;;5010448;28;20033;-83
2021/05/06 12:18:58;;;;;;;14.87;2.97;;;7.90;99.90;;;;;;5010831;28;20401;-82
2021/05/06 12:21:30;;;;;;;18.92;2.67;;;7.50;99.90;;;;;;5011993;28;20521;-82
2021/05/06 12:23:57;;;;;;;15.20;2.90;;;6.90;99.90;;;;;;5011084;28;20125;-83
2021/05/06 12:26:23;;;;;;;22.10;3.13;;;6.30;99.90;;;;;;5011768;28;20017;-82
2021/05/06 12:28:49;;;;;;;15.57;3.55;;;6.20;99.90;;;;;;5011947;28;20383;-81
2021/05/06 12:31:14;;;;;;;12.02;2.45;;;6.00;99.90;;;;;;5012146;28;20026;-82
2021/05/06 12:33:40;;;;;;;17.42;3.08;;;6.20;99.90;;;;;;5011358;28;20088;-82
2021/05/06 12:36:10;;;;;;;25.48;3.40;;;6.60;99.90;;;;;;5011386;28;20553;-80
2021/05/06 12:38:37;;;;;;;14.68;2.65;;;6.80;99.90;;;;;;5011880;28;20029;-82
2021/05/06 12:41:07;;;;;;;22.88;4.07;;;7.60;99.90;;;;;;5011761;28;20049;-82
2021/05/06 12:43:34;;;;;;;13.13;2.58;;;8.00;99.90;;;;;;5011730;28;20087;-82
2021/05/06 12:46:09;;;;;;;19.92;3.55;;;8.00;99.90;;;;;;5010428;28;20022;-82
2021/05/06 12:48:52;;;;;;;13.77;2.70;;;8.20;99.90;;;;;;5011829;28;20029;-82
2021/05/06 12:51:19;;;;;;;17.80;3.28;;;8.00;99.90;;;;;;5011495;28;20589;-82
2021/05/06 12:53:58;;;;;;;14.50;2.28;;;8.50;99.90;;;;;;5010898;28;20100;-82
2021/05/06 12:56:25;;;;;;;24.58;3.55;;;9.00;99.90;;;;;;5011277;28;20058;-82
2021/05/06 12:58:51;;;;;;;15.50;4.43;;;9.70;99.90;;;;;;5011660;28;20022;-82
2021/05/06 13:01:28;;;;;;;20.27;3.80;;;9.40;99.90;;;;;;5010256;28;20068;-83
2021/05/06 13:03:58;;;;;;;22.08;3.20;;;9.10;99.90;;;;;;5010964;28;20026;-81
2021/05/06 13:06:30;;;;;;;27.70;3.55;;;8.80;99.90;;;;;;5010978;28;20026;-82
2021/05/06 13:08:58;;;;;;;14.82;3.78;;;8.40;99.90;;;;;;5014229;28;20394;-82
2021/05/06 13:11:24;;;;;;;22.75;3.95;;;8.10;99.90;;;;;;5015583;28;20029;-82
2021/05/06 13:13:52;;;;;;;22.08;3.22;;;8.60;99.90;;;;;;5014659;28;20105;-82
2021/05/06 13:16:41;;;;;;;23.85;3.40;;;9.60;99.90;;;;;;5013754;28;20046;-82
2021/05/06 13:19:09;;;;;;;21.85;2.67;;;10.50;99.90;;;;;;5015004;28;20107;-82
2021/05/06 13:21:35;;;;;;;15.95;3.47;;;11.00;99.90;;;;;;5014742;28;20101;-82
2021/05/06 13:24:03;;;;;;;20.08;3.72;;;11.10;99.90;;;;;;5014438;28;20060;-83
2021/05/06 13:26:37;;;;;;;16.02;3.10;;;11.10;99.90;;;;;;5014538;28;20390;-82
2021/05/06 13:29:07;;;;;;;18.08;3.80;;;10.60;99.90;;;;;;5015179;28;20026;-83
2021/05/06 13:31:35;;;;;;;20.05;4.35;;;10.60;99.90;;;;;;5015214;28;20053;-83
2021/05/06 13:34:14;;;;;;;19.80;2.95;;;10.80;99.90;;;;;;5014268;28;20018;-82
2021/05/06 13:36:42;;;;;;;18.88;3.53;;;9.90;99.90;;;;;;5014871;28;20502;-83
2021/05/06 13:39:10;;;;;;;19.08;3.58;;;9.40;99.90;;;;;;5014960;28;20445;-82
2021/05/06 13:41:38;;;;;;;12.30;2.65;;;9.00;99.90;;;;;;5015046;28;20493;-82
2021/05/06 13:44:06;;;;;;;15.05;3.15;;;8.50;99.90;;;;;;5014230;28;20085;-82
2021/05/06 13:46:34;;;;;;;22.45;3.40;;;8.40;99.90;;;;;;5013994;28;20033;-82
2021/05/06 13:49:00;;;;;;;15.00;2.47;;;9.40;99.90;;;;;;5014829;28;20057;-82
2021/05/06 13:51:28;;;;;;;15.43;3.05;;;10.40;99.90;;;;;;5014677;28;20084;-83
2021/05/06 13:53:54;;;;;;;17.95;3.65;;;11.00;99.90;;;;;;5013972;28;20367;-82
2021/05/06 13:56:21;;;;;;;12.48;2.65;;;11.20;99.90;;;;;;5014376;28;20457;-83
2021/05/06 13:58:50;;;;;;;20.70;4.05;;;11.70;99.90;;;;;;5014521;28;20061;-82
2021/05/06 14:01:18;;;;;;;18.45;3.00;;;11.50;99.90;;;;;;5014567;28;20378;-81
2021/05/06 14:03:43;;;;;;;16.77;3.30;;;10.80;99.90;;;;;;5013894;28;20589;-84
2021/05/06 14:06:09;;;;;;;19.55;3.25;;;10.80;99.90;;;;;;5013889;28;20041;-84
2021/05/06 14:08:35;;;;;;;19.75;3.60;;;11.50;99.90;;;;;;5014576;28;20038;-84
2021/05/06 14:11:01;;;;;;;23.13;3.45;;;11.70;99.90;;;;;;5014437;28;20022;-84
2021/05/06 14:13:28;;;;;;;20.13;4.00;;;11.60;99.90;;;;;;5014525;28;20029;-82
2021/05/06 14:15:54;;;;;;;15.25;3.03;;;11.00;99.90;;;;;;5012590;28;20094;-85
2021/05/06 14:18:20;;;;;;;20.45;3.58;;;11.20;99.90;;;;;;5014426;28;20025;-83
2021/05/06 14:20:47;;;;;;;15.05;3.60;;;11.10;99.90;;;;;;5012753;28;20029;-83
2021/05/06 14:23:16;;;;;;;17.63;2.85;;;10.80;99.90;;;;;;5013986;28;20025;-82
2021/05/06 14:25:42;;;;;;;14.98;3.15;;;11.30;99.90;;;;;;5013433;28;20414;-83
2021/05/06 14:28:07;;;;;;;14.20;2.20;;;12.00;99.90;;;;;;5013177;28;20026;-84
2021/05/06 14:30:34;;;;;;;12.63;2.63;;;11.60;99.90;;;;;;5014513;28;20132;-86
2021/05/06 14:33:00;;;;;;;20.60;2.90;;;10.20;99.90;;;;;;5014004;28;20444;-83
2021/05/06 14:35:26;;;;;;;21.85;3.80;;;10.10;99.90;;;;;;5013151;28;20104;-83
2021/05/06 14:37:51;;;;;;;16.98;3.25;;;10.10;99.90;;;;;;5013885;28;20053;-84
2021/05/06 14:40:17;;;;;;;16.33;3.80;;;10.00;99.90;;;;;;5013885;28;20077;-83
2021/05/06 14:42:43;;;;;;;16.85;3.28;;;9.50;99.90;;;;;;5013742;28;20026;-86
2021/05/06 14:45:10;;;;;;;19.20;2.75;;;9.30;99.90;;;;;;5013322;28;20026;-87
2021/05/06 14:47:40;;;;;;;17.02;3.20;;;9.70;99.90;;;;;;5013508;28;20026;-82
2021/05/06 14:50:09;;;;;;;17.83;3.08;;;10.50;99.90;;;;;;5013494;28;20109;-81
2021/05/06 14:52:34;;;;;;;16.95;2.83;;;10.90;99.90;;;;;;5013482;28;20397;-83
2021/05/06 14:55:00;;;;;;;15.25;2.40;;;10.70;99.90;;;;;;5012959;28;20033;-80
2021/05/06 14:57:26;;;;;;;12.25;3.47;;;9.80;99.90;;;;;;5013377;28;20034;-82
2021/05/06 14:59:52;;;;;;;19.77;2.70;;;10.00;99.90;;;;;;5013493;28;20087;-82
2021/05/06 15:02:17;;;;;;;10.00;2.58;;;10.50;99.90;;;;;;5013407;28;20030;-84
2021/05/06 15:04:43;;;;;;;31.73;5.55;;;10.00;99.90;;;;;;5012759;28;20018;-80
2021/05/06 15:07:08;;;;;;;12.52;2.85;;;9.30;99.90;;;;;;5012749;28;20030;-79
2021/05/06 15:09:34;;;;;;;19.42;3.67;;;9.40;99.90;;;;;;5013239;28;20109;-79
2021/05/06 15:12:00;;;;;;;18.95;4.03;;;10.20;99.90;;;;;;5013234;28;20046;-79
2021/05/06 15:14:26;;;;;;;15.38;2.65;;;10.80;99.90;;;;;;5012612;28;20026;-81
2021/05/06 15:16:52;;;;;;;13.02;2.72;;;11.10;99.90;;;;;;5011775;28;20027;-81
2021/05/06 15:19:19;;;;;;;18.40;2.75;;;10.60;99.90;;;;;;5013134;28;20088;-81
2021/05/06 15:21:45;;;;;;;14.68;2.38;;;10.50;99.90;;;;;;5012640;28;20109;-82
2021/05/06 15:24:10;;;;;;;30.90;2.95;;;11.00;99.90;;;;;;5012326;28;20105;-79
2021/05/06 15:26:36;;;;;;;11.93;3.08;;;10.60;99.90;;;;;;5012193;28;20068;-80
2021/05/06 15:29:03;;;;;;;28.02;10.15;;;9.80;99.90;;;;;;5012913;28;20053;-79
2021/05/06 15:31:30;;;;;;;12.77;3.35;;;9.40;99.90;;;;;;5012485;28;20022;-79
2021/05/06 15:33:56;;;;;;;14.60;3.22;;;8.90;99.90;;;;;;5012260;28;20080;-80
2021/05/06 15:36:22;;;;;;;18.90;3.00;;;8.60;99.90;;;;;;5012556;28;20604;-80
2021/05/06 15:38:48;;;;;;;17.73;3.50;;;8.50;99.90;;;;;;5012680;28;20022;-80
2021/05/06 15:41:14;;;;;;;12.23;2.80;;;8.50;99.90;;;;;;5012838;28;20026;-79
2021/05/06 15:43:39;;;;;;;18.88;2.67;;;8.50;99.90;;;;;;5012272;28;20072;-79
2021/05/06 15:46:06;;;;;;;19.38;2.90;;;9.40;99.90;;;;;;5011839;28;20060;-79
2021/05/06 15:48:32;;;;;;;14.35;2.28;;;9.30;99.90;;;;;;5012685;28;20555;-79
2021/05/06 15:51:00;;;;;;;9.43;2.33;;;9.00;99.90;;;;;;5011995;28;20089;-79